Observation data for Tulia on 05/24/2019      Previous  Date  Next       Current Mesonet Observations  Soil Data  Daily Summary Page  Observations in Plain Language
KTIS 240500Z 28006KT 21/11 A2996 RMK A01 T02050113  RH  057%=      5-min Rain = 0
KTIS 240505Z 04004KT 20/12 A2995 RMK A01 T02030115  RH  059%=      5-min Rain = 0
KTIS 240510Z 30005G11KT 20/12 A2997 RMK A01 T02000119  RH  062%=      5-min Rain = 0
KTIS 240515Z 25013KT 20/12 A2999 RMK A01 T01960119  RH  063%=      5-min Rain = 0
KTIS 240520Z 23010G19KT 19/11 A2996 RMK A01 T01940112  RH  061%=      5-min Rain = 0
KTIS 240525Z 34004G13KT 20/12 A2994 RMK A01 T01950115  RH  062%=      5-min Rain = 0
KTIS 240530Z 26011KT 19/12 A2996 RMK A01 T01860118  RH  067%=      5-min Rain = 0
KTIS 240535Z 23012G18KT 19/12 A2998 RMK A01 T01850117  RH  067%=      5-min Rain = 0
KTIS 240540Z 24014G19KT 19/12 A2998 RMK A01 T01860115  RH  066%=      5-min Rain = 0
KTIS 240545Z 22007G12KT 19/12 A2996 RMK A01 T01860116  RH  066%=      5-min Rain = 0
KTIS 240550Z 20005KT 19/12 A2993 RMK A01 T01850119  RH  068%=      5-min Rain = 0
KTIS 240555Z 21007KT 18/13 A2994 RMK A01 T01800125  RH  073%=      5-min Rain = 0
KTIS 240600Z 21007KT 18/13 A2994 RMK A01 T01800125  RH  073%=      5-min Rain = 0
KTIS 240605Z 21012KT 18/13 A2997 RMK A01 T01790127  RH  074%=      5-min Rain = 0
KTIS 240610Z 23015G21KT 18/12 A2998 RMK A01 T01790123  RH  073%=      5-min Rain = 0
KTIS 240615Z 23011KT 18/12 A2996 RMK A01 T01760121  RH  073%=      5-min Rain = 0
KTIS 240620Z 23014KT 17/12 A2997 RMK A01 T01740121  RH  074%=      5-min Rain = 0
KTIS 240625Z 22015G20KT 17/12 A2998 RMK A01 T01710120  RH  075%=      5-min Rain = 0
KTIS 240630Z 21015G20KT 17/12 A2997 RMK A01 T01680119  RH  076%=      5-min Rain = 0
KTIS 240635Z 24013G19KT 17/12 A2998 RMK A01 T01660120  RH  077%=      5-min Rain = 0
KTIS 240640Z 19006KT 17/12 A2994 RMK A01 T01650120  RH  078%=      5-min Rain = 0
KTIS 240645Z 15009KT 16/12 A2994 RMK A01 T01610123  RH  081%=      5-min Rain = 0
KTIS 240650Z 16008G13KT 16/13 A2995 RMK A01 T01590126  RH  084%=      5-min Rain = 0
KTIS 240655Z 13007KT 16/13 A2993 RMK A01 T01590126  RH  084%=      5-min Rain = 0
KTIS 240700Z 12008KT 16/13 A2991 RMK A01 T01580127  RH  085%=      5-min Rain = 0
KTIS 240705Z 07010G16KT 16/13 A2987 RMK A01 T01570129  RH  086%=      5-min Rain = 0
KTIS 240710Z 14008G13KT 16/13 A299 RMK A01 T01560130  RH  088%=      5-min Rain = 0
KTIS 240715Z 23010G15KT 16/13 A2995 RMK A01 T01580131  RH  087%=      5-min Rain = 0
KTIS 240720Z 21011KT 16/13 A2996 RMK A01 T01580131  RH  087%=      5-min Rain = 0
KTIS 240725Z 22011KT 16/13 A2996 RMK A01 T01570131  RH  088%=      5-min Rain = 0
KTIS 240730Z 21009KT 16/13 A2996 RMK A01 T01570131  RH  088%=      5-min Rain = 0
KTIS 240735Z 17006KT 16/13 A2995 RMK A01 T01570132  RH  089%=      5-min Rain = 0
KTIS 240740Z 17008KT 16/13 A2995 RMK A01 T01570132  RH  088%=      5-min Rain = 0
KTIS 240745Z 18007KT 16/13 A2995 RMK A01 T01580132  RH  088%=      5-min Rain = 0
KTIS 240750Z 16008KT 16/13 A2996 RMK A01 T01580132  RH  088%=      5-min Rain = 0
KTIS 240755Z 16010KT 16/13 A2996 RMK A01 T01580131  RH  087%=      5-min Rain = 0
KTIS 240800Z 16010KT 16/13 A2995 RMK A01 T01590129  RH  086%=      5-min Rain = 0
KTIS 240805Z 17009KT 16/13 A2995 RMK A01 T01580129  RH  086%=      5-min Rain = 0
KTIS 240810Z 17009KT 16/13 A2996 RMK A01 T01580128  RH  086%=      5-min Rain = 0
KTIS 240815Z 18008KT 16/13 A2996 RMK A01 T01590128  RH  086%=      5-min Rain = 0
KTIS 240820Z 17006KT 16/13 A2995 RMK A01 T01580127  RH  085%=      5-min Rain = 0
KTIS 240825Z 16005KT 16/13 A2995 RMK A01 T01570128  RH  086%=      5-min Rain = 0
KTIS 240830Z 16003KT 16/13 A2995 RMK A01 T01560128  RH  087%=      5-min Rain = 0
KTIS 240835Z 17003KT 16/13 A2994 RMK A01 T01550129  RH  088%=      5-min Rain = 0
KTIS 240840Z 16005KT 15/13 A2994 RMK A01 T01540129  RH  088%=      5-min Rain = 0
KTIS 240845Z 17004KT 15/13 A2994 RMK A01 T01540129  RH  089%=      5-min Rain = 0
KTIS 240850Z 17003KT 16/13 A2994 RMK A01 T01550129  RH  088%=      5-min Rain = 0
KTIS 240855Z 15005KT 15/13 A2994 RMK A01 T01540129  RH  089%=      5-min Rain = 0
KTIS 240900Z 18005KT 15/13 A2994 RMK A01 T01530129  RH  089%=      5-min Rain = 0
KTIS 240905Z 17004KT 15/13 A2993 RMK A01 T01530129  RH  089%=      5-min Rain = 0
KTIS 240910Z 16004KT 15/13 A2993 RMK A01 T01520129  RH  090%=      5-min Rain = 0
KTIS 240915Z 18002KT 15/13 A2993 RMK A01 T01520130  RH  090%=      5-min Rain = 0
KTIS 240920Z 17005KT 15/13 A2994 RMK A01 T01520131  RH  090%=      5-min Rain = 0
KTIS 240925Z 18006KT 15/13 A2995 RMK A01 T01530132  RH  091%=      5-min Rain = 0
KTIS 240930Z 19005KT 15/13 A2995 RMK A01 T01540132  RH  091%=      5-min Rain = 0
KTIS 240935Z 18006KT 15/13 A2996 RMK A01 T01540132  RH  091%=      5-min Rain = 0
KTIS 240940Z 19006KT 15/13 A2997 RMK A01 T01540133  RH  091%=      5-min Rain = 0
KTIS 240945Z 18005KT 15/13 A2996 RMK A01 T01540133  RH  091%=      5-min Rain = 0
KTIS 240950Z 20005KT 15/13 A2996 RMK A01 T01530133  RH  091%=      5-min Rain = 0
KTIS 240955Z 19005KT 15/13 A2996 RMK A01 T01520132  RH  092%=      5-min Rain = 0
KTIS 241000Z 19005KT 15/13 A2997 RMK A01 T01520133  RH  092%=      5-min Rain = 0
KTIS 241005Z 19006KT 15/13 A2996 RMK A01 T01520133  RH  092%=      5-min Rain = 0
KTIS 241010Z 22006KT 15/13 A2995 RMK A01 T01520133  RH  092%=      5-min Rain = 0
KTIS 241015Z 22007KT 15/13 A2997 RMK A01 T01520133  RH  092%=      5-min Rain = 0
KTIS 241020Z 18003KT 15/13 A2997 RMK A01 T01520132  RH  092%=      5-min Rain = 0
KTIS 241025Z 13004KT 15/13 A2997 RMK A01 T01510131  RH  092%=      5-min Rain = 0
KTIS 241030Z 05005KT 15/13 A2998 RMK A01 T01500132  RH  092%=      5-min Rain = 0
KTIS 241035Z 03005KT 15/13 A2999 RMK A01 T01500132  RH  093%=      5-min Rain = 0
KTIS 241040Z 06004KT 15/13 A2999 RMK A01 T01500132  RH  093%=      5-min Rain = 0
KTIS 241045Z 05003KT 15/13 A2999 RMK A01 T01490132  RH  093%=      5-min Rain = 0
KTIS 241050Z 02003KT 15/13 A2999 RMK A01 T01490132  RH  093%=      5-min Rain = 0
KTIS 241055Z 35003KT 15/13 A2999 RMK A01 T01490132  RH  093%=      5-min Rain = 0
KTIS 241100Z 02002KT 15/13 A2999 RMK A01 T01480132  RH  093%=      5-min Rain = 0
KTIS 241105Z 04003KT 15/13 A2999 RMK A01 T01480132  RH  094%=      5-min Rain = 0
KTIS 241110Z 35004KT 15/13 A2998 RMK A01 T01480131  RH  094%=      5-min Rain = 0
KTIS 241115Z 33003KT 15/13 A2998 RMK A01 T01460129  RH  094%=      5-min Rain = 0
KTIS 241120Z 34000KT 15/13 A2999 RMK A01 T01450129  RH  094%=      5-min Rain = 0
KTIS 241125Z 34004KT 15/13 A2999 RMK A01 T01450130  RH  094%=      5-min Rain = 0
KTIS 241130Z 35006KT 15/13 A2999 RMK A01 T01450130  RH  094%=      5-min Rain = 0
KTIS 241135Z 36004KT 15/13 A2998 RMK A01 T01450130  RH  095%=      5-min Rain = 0
KTIS 241140Z 34002KT 15/13 A2998 RMK A01 T01450130  RH  095%=      5-min Rain = 0
KTIS 241145Z 34003KT 15/13 A2998 RMK A01 T01450130  RH  095%=      5-min Rain = 0
KTIS 241150Z 34003KT 14/13 A2999 RMK A01 T01440130  RH  095%=      5-min Rain = 0
KTIS 241155Z 00003KT 15/13 A2999 RMK A01 T01450130  RH  095%=      5-min Rain = 0
KTIS 241200Z 33004KT 15/13 A2999 RMK A01 T01450130  RH  095%=      5-min Rain = 0
KTIS 241205Z 34005KT 15/13 A30 RMK A01 T01450131  RH  095%=      5-min Rain = 0
KTIS 241210Z 34005KT 15/13 A30 RMK A01 T01450131  RH  095%=      5-min Rain = 0
KTIS 241215Z 32004KT 15/13 A2999 RMK A01 T01460132  RH  095%=      5-min Rain = 0
KTIS 241220Z 32003KT 15/13 A2999 RMK A01 T01470133  RH  095%=      5-min Rain = 0
KTIS 241225Z 32004KT 15/14 A2999 RMK A01 T01490135  RH  095%=      5-min Rain = 0
KTIS 241230Z 34005KT 15/14 A2999 RMK A01 T01510135  RH  094%=      5-min Rain = 0
KTIS 241235Z 32004KT 15/14 A30 RMK A01 T01520136  RH  094%=      5-min Rain = 0
KTIS 241240Z 30004KT 16/14 A30 RMK A01 T01550138  RH  093%=      5-min Rain = 0
KTIS 241245Z 29003KT 16/14 A30 RMK A01 T01590138  RH  092%=      5-min Rain = 0
KTIS 241250Z 28004KT 16/14 A30 RMK A01 T01600137  RH  090%=      5-min Rain = 0
KTIS 241255Z 28005KT 16/14 A30 RMK A01 T01630137  RH  088%=      5-min Rain = 0
KTIS 241300Z 28006KT 16/14 A30 RMK A01 T01630136  RH  087%=      5-min Rain = 0
KTIS 241305Z 28005KT 17/14 A30 RMK A01 T01650136  RH  087%=      5-min Rain = 0
KTIS 241310Z 28005KT 17/14 A30 RMK A01 T01650136  RH  086%=      5-min Rain = 0
KTIS 241315Z 29005KT 17/14 A30 RMK A01 T01660135  RH  085%=      5-min Rain = 0
KTIS 241320Z 28004KT 17/13 A3001 RMK A01 T01680134  RH  084%=      5-min Rain = 0
KTIS 241325Z 30004KT 17/14 A30 RMK A01 T01700135  RH  083%=      5-min Rain = 0
KTIS 241330Z 32004KT 17/14 A30 RMK A01 T01680135  RH  084%=      5-min Rain = 0
KTIS 241335Z 32004KT 17/14 A30 RMK A01 T01670136  RH  085%=      5-min Rain = 0
KTIS 241340Z 31003KT 17/14 A30 RMK A01 T01660136  RH  086%=      5-min Rain = 0
KTIS 241345Z 31002KT 17/14 A30 RMK A01 T01650136  RH  086%=      5-min Rain = 0
KTIS 241350Z 31002KT 17/14 A30 RMK A01 T01650137  RH  087%=      5-min Rain = 0
KTIS 241355Z 34002KT 16/14 A30 RMK A01 T01640137  RH  087%=      5-min Rain = 0
KTIS 241400Z 02002KT 16/14 A3001 RMK A01 T01640137  RH  087%=      5-min Rain = 0
KTIS 241405Z 01003KT 17/14 A30 RMK A01 T01660137  RH  086%=      5-min Rain = 0
KTIS 241410Z 01001KT 17/14 A3001 RMK A01 T01670136  RH  085%=      5-min Rain = 0
KTIS 241415Z 01000KT 17/14 A3001 RMK A01 T01680137  RH  085%=      5-min Rain = 0
KTIS 241420Z 01000KT 17/14 A3001 RMK A01 T01710137  RH  084%=      5-min Rain = 0
KTIS 241425Z 35001KT 18/14 A3001 RMK A01 T01770140  RH  082%=      5-min Rain = 0
KTIS 241430Z 01002KT 18/14 A3001 RMK A01 T01830138  RH  078%=      5-min Rain = 0
KTIS 241435Z 33001KT 19/14 A3001 RMK A01 T01890139  RH  076%=      5-min Rain = 0
KTIS 241440Z 35001KT 19/14 A3001 RMK A01 T01900137  RH  074%=      5-min Rain = 0
KTIS 241445Z 07002KT 19/14 A3001 RMK A01 T01910138  RH  074%=      5-min Rain = 0
KTIS 241450Z 10002KT 19/14 A3001 RMK A01 T01900137  RH  074%=      5-min Rain = 0
KTIS 241455Z 12003KT 19/14 A3001 RMK A01 T01910139  RH  075%=      5-min Rain = 0
KTIS 241500Z 12002KT 20/14 A30 RMK A01 T01960139  RH  073%=      5-min Rain = 0
KTIS 241505Z 11001KT 20/14 A30 RMK A01 T02000141  RH  072%=      5-min Rain = 0
KTIS 241510Z 09003KT 20/14 A3001 RMK A01 T02000140  RH  071%=      5-min Rain = 0
KTIS 241515Z 13004KT 20/14 A3001 RMK A01 T02010144  RH  072%=      5-min Rain = 0
KTIS 241520Z 11003KT 20/14 A30 RMK A01 T02040144  RH  071%=      5-min Rain = 0
KTIS 241525Z 11005KT 20/14 A3001 RMK A01 T02040144  RH  071%=      5-min Rain = 0
KTIS 241530Z 15004KT 21/15 A3001 RMK A01 T02100148  RH  071%=      5-min Rain = 0
KTIS 241535Z 15003KT 21/15 A3001 RMK A01 T02120148  RH  070%=      5-min Rain = 0
KTIS 241540Z 14004KT 21/15 A3001 RMK A01 T02120149  RH  071%=      5-min Rain = 0
KTIS 241545Z 12002KT 21/15 A3001 RMK A01 T02070148  RH  072%=      5-min Rain = 0
KTIS 241550Z 12003KT 21/15 A3001 RMK A01 T02080149  RH  072%=      5-min Rain = 0
KTIS 241555Z 12003KT 21/15 A3001 RMK A01 T02070148  RH  072%=      5-min Rain = 0
KTIS 241600Z 12004KT 21/15 A3001 RMK A01 T02080151  RH  073%=      5-min Rain = 0
KTIS 241605Z 15003KT 21/15 A3001 RMK A01 T02110154  RH  073%=      5-min Rain = 0
KTIS 241610Z 13005KT 21/16 A3001 RMK A01 T02120155  RH  073%=      5-min Rain = 0
KTIS 241615Z 12004KT 21/16 A3001 RMK A01 T02100156  RH  074%=      5-min Rain = 0
KTIS 241620Z 15004KT 21/16 A3001 RMK A01 T02110157  RH  075%=      5-min Rain = 0
KTIS 241625Z 15005KT 21/16 A3001 RMK A01 T02130159  RH  075%=      5-min Rain = 0
KTIS 241630Z 16004KT 21/16 A3001 RMK A01 T02130159  RH  075%=      5-min Rain = 0
KTIS 241635Z 15005KT 21/16 A3001 RMK A01 T02130161  RH  075%=      5-min Rain = 0
KTIS 241640Z 15005KT 22/16 A3001 RMK A01 T02150162  RH  076%=      5-min Rain = 0
KTIS 241645Z 14004KT 22/16 A3001 RMK A01 T02190163  RH  074%=      5-min Rain = 0
KTIS 241650Z 12007KT 22/17 A30 RMK A01 T02220165  RH  074%=      5-min Rain = 0
KTIS 241655Z 14007G14KT 22/17 A30 RMK A01 T02210167  RH  075%=      5-min Rain = 0
KTIS 241700Z 15006KT 22/17 A3001 RMK A01 T02220167  RH  075%=      5-min Rain = 0
KTIS 241705Z 16004KT 23/17 A3001 RMK A01 T02280171  RH  074%=      5-min Rain = 0
KTIS 241710Z 16007KT 23/17 A3001 RMK A01 T02260169  RH  074%=      5-min Rain = 0
KTIS 241715Z 16006KT 23/17 A3001 RMK A01 T02250171  RH  075%=      5-min Rain = 0
KTIS 241720Z 16007KT 23/17 A30 RMK A01 T02310173  RH  073%=      5-min Rain = 0
KTIS 241725Z 17006KT 24/18 A30 RMK A01 T02360175  RH  073%=      5-min Rain = 0
KTIS 241730Z 17008KT 24/18 A3001 RMK A01 T02380176  RH  072%=      5-min Rain = 0
KTIS 241735Z 16006KT 23/17 A3001 RMK A01 T02320172  RH  073%=      5-min Rain = 0
KTIS 241740Z 14006G11KT 23/18 A3001 RMK A01 T02290175  RH  075%=      5-min Rain = 0
KTIS 241745Z 15007KT 24/18 A30 RMK A01 T02350177  RH  074%=      5-min Rain = 0
KTIS 241750Z 15008KT 24/18 A30 RMK A01 T02390179  RH  073%=      5-min Rain = 0
KTIS 241755Z 18006KT 24/18 A30 RMK A01 T02370175  RH  072%=      5-min Rain = 0
KTIS 241800Z 16007KT 24/18 A30 RMK A01 T02400179  RH  072%=      5-min Rain = 0
KTIS 241805Z 16009KT 24/18 A2999 RMK A01 T02410179  RH  072%=      5-min Rain = 0
KTIS 241810Z 16008G13KT 24/18 A2999 RMK A01 T02400179  RH  072%=      5-min Rain = 0
KTIS 241815Z 15008KT 24/18 A2999 RMK A01 T02400178  RH  072%=      5-min Rain = 0
KTIS 241820Z 14007KT 25/18 A2998 RMK A01 T02450179  RH  071%=      5-min Rain = 0
KTIS 241825Z 15009G14KT 25/18 A2998 RMK A01 T02490180  RH  069%=      5-min Rain = 0
KTIS 241830Z 15006KT 25/18 A2997 RMK A01 T02450178  RH  070%=      5-min Rain = 0
KTIS 241835Z 17007KT 25/18 A2997 RMK A01 T02530179  RH  067%=      5-min Rain = 0
KTIS 241840Z 15009KT 25/18 A2997 RMK A01 T02530182  RH  068%=      5-min Rain = 0
KTIS 241845Z 15009KT 25/18 A2997 RMK A01 T02520181  RH  068%=      5-min Rain = 0
KTIS 241850Z 15010G16KT 25/18 A2997 RMK A01 T02490181  RH  069%=      5-min Rain = 0
KTIS 241855Z 16010G15KT 25/18 A2997 RMK A01 T02530181  RH  068%=      5-min Rain = 0
KTIS 241900Z 13010G15KT 25/18 A2997 RMK A01 T02480183  RH  071%=      5-min Rain = 0
KTIS 241905Z 14010G15KT 25/18 A2997 RMK A01 T02470181  RH  071%=      5-min Rain = 0
KTIS 241910Z 13011KT 25/18 A2996 RMK A01 T02520183  RH  069%=      5-min Rain = 0
KTIS 241915Z 15011KT 26/18 A2996 RMK A01 T02550181  RH  067%=      5-min Rain = 0
KTIS 241920Z 15013KT 25/18 A2996 RMK A01 T02510181  RH  068%=      5-min Rain = 0
KTIS 241925Z 15012G17KT 24/18 A2997 RMK A01 T02440179  RH  071%=      5-min Rain = 0
KTIS 241930Z 15012KT 24/18 A2996 RMK A01 T02420178  RH  071%=      5-min Rain = 0
KTIS 241935Z 15012KT 24/18 A2996 RMK A01 T02380177  RH  072%=      5-min Rain = 0
KTIS 241940Z 15011KT 24/18 A2996 RMK A01 T02350176  RH  073%=      5-min Rain = 0
KTIS 241945Z 15011KT 23/18 A2996 RMK A01 T02330176  RH  074%=      5-min Rain = 0
KTIS 241950Z 14008KT 23/18 A2995 RMK A01 T02310177  RH  075%=      5-min Rain = 0
KTIS 241955Z 13008KT 23/18 A2994 RMK A01 T02290179  RH  078%=      5-min Rain = 0
KTIS 242000Z 11008KT 23/18 A2994 RMK A01 T02250181  RH  080%=      5-min Rain = 0
KTIS 242005Z 13008KT 22/18 A2994 RMK A01 T02230181  RH  081%=      5-min Rain = 0
KTIS 242010Z 12007KT 22/18 A2993 RMK A01 T02220182  RH  082%=      5-min Rain = 0
KTIS 242015Z 11008KT 22/18 A2994 RMK A01 T02220183  RH  083%=      5-min Rain = 0
KTIS 242020Z 11009KT 22/18 A2995 RMK A01 T02210183  RH  083%=      5-min Rain = 0
KTIS 242025Z 10013KT 22/18 A2996 RMK A01 T02180181  RH  084%=      5-min Rain = 0
KTIS 242030Z 10013KT 21/18 A2996 RMK A01 T02140181  RH  086%=      5-min Rain = 0
KTIS 242035Z 10010KT 21/18 A2995 RMK A01 T02130181  RH  086%=      5-min Rain = 0
KTIS 242040Z 10009KT 21/18 A2994 RMK A01 T02120181  RH  087%=      5-min Rain = 0
KTIS 242045Z 10008KT 21/18 A2993 RMK A01 T02110181  RH  087%=      5-min Rain = 0
KTIS 242050Z 10009KT 21/18 A2993 RMK A01 T02110181  RH  088%=      5-min Rain = 0
KTIS 242055Z 10010KT 21/18 A2993 RMK A01 T02110182  RH  088%=      5-min Rain = 0
KTIS 242100Z 10011KT 21/18 A2993 RMK A01 T02090181  RH  089%=      5-min Rain = 0
KTIS 242105Z 10008KT 21/18 A2992 RMK A01 T02100183  RH  089%=      5-min Rain = 0
KTIS 242110Z 10010KT 21/18 A2992 RMK A01 T02120183  RH  088%=      5-min Rain = 0
KTIS 242115Z 09012KT 21/18 A2993 RMK A01 T02120184  RH  089%=      5-min Rain = 0
KTIS 242120Z 10010KT 21/18 A2993 RMK A01 T02100184  RH  090%=      5-min Rain = 0
KTIS 242125Z 10008KT 21/18 A2992 RMK A01 T02090183  RH  090%=      5-min Rain = 0
KTIS 242130Z 11008KT 21/18 A2991 RMK A01 T02100184  RH  089%=      5-min Rain = 0
KTIS 242135Z 11008KT 21/18 A2991 RMK A01 T02110184  RH  089%=      5-min Rain = 0
KTIS 242140Z 12006KT 21/19 A299 RMK A01 T02110185  RH  089%=      5-min Rain = 0
KTIS 242145Z 12005KT 21/19 A299 RMK A01 T02120185  RH  090%=      5-min Rain = 0
KTIS 242150Z 10009KT 21/19 A2991 RMK A01 T02130185  RH  089%=      5-min Rain = 0
KTIS 242155Z 10008KT 21/18 A2991 RMK A01 T02110184  RH  089%=      5-min Rain = 0
KTIS 242200Z 10010KT 21/19 A299 RMK A01 T02120185  RH  089%=      5-min Rain = 0
KTIS 242205Z 09012KT 21/19 A299 RMK A01 T02130185  RH  089%=      5-min Rain = 0
KTIS 242210Z 10012KT 22/19 A299 RMK A01 T02160187  RH  088%=      5-min Rain = 0
KTIS 242215Z 10011KT 22/19 A299 RMK A01 T02210188  RH  086%=      5-min Rain = 0
KTIS 242220Z 10011KT 22/19 A299 RMK A01 T02230189  RH  086%=      5-min Rain = 0
KTIS 242225Z 10012KT 23/19 A299 RMK A01 T02260190  RH  084%=      5-min Rain = 0
KTIS 242230Z 11014G19KT 22/19 A299 RMK A01 T02240186  RH  084%=      5-min Rain = 0
KTIS 242235Z 13013KT 21/17 A299 RMK A01 T02090167  RH  081%=      5-min Rain = 0
KTIS 242240Z 13011KT 21/16 A299 RMK A01 T02060158  RH  078%=      5-min Rain = 0
KTIS 242245Z 13011KT 20/15 A299 RMK A01 T02010150  RH  076%=      5-min Rain = 0
KTIS 242250Z 13011KT 20/15 A299 RMK A01 T01970149  RH  077%=      5-min Rain = 0
KTIS 242255Z 14009G14KT 20/14 A2989 RMK A01 T01950144  RH  075%=      5-min Rain = 0
KTIS 242300Z 14009KT 20/14 A2989 RMK A01 T01950140  RH  073%=      5-min Rain = 0
KTIS 242305Z 14010KT 20/14 A2989 RMK A01 T01960140  RH  073%=      5-min Rain = 0
KTIS 242310Z 14012KT 20/14 A2989 RMK A01 T01950136  RH  072%=      5-min Rain = 0
KTIS 242315Z 14009KT 20/14 A2988 RMK A01 T01960136  RH  071%=      5-min Rain = 0
KTIS 242320Z 13008KT 20/14 A2988 RMK A01 T01970135  RH  070%=      5-min Rain = 0
KTIS 242325Z 13010KT 19/13 A2988 RMK A01 T01940134  RH  071%=      5-min Rain = 0
KTIS 242330Z 13008KT 19/14 A2988 RMK A01 T01920135  RH  073%=      5-min Rain = 0
KTIS 242335Z 12007KT 19/14 A2987 RMK A01 T01910135  RH  073%=      5-min Rain = 0
KTIS 242340Z 13007KT 19/14 A2987 RMK A01 T01930135  RH  072%=      5-min Rain = 0
KTIS 242345Z 14008KT 19/14 A2987 RMK A01 T01930136  RH  073%=      5-min Rain = 0
KTIS 242350Z 14009KT 19/14 A2987 RMK A01 T01920135  RH  072%=      5-min Rain = 0
KTIS 242355Z 14008KT 19/14 A2986 RMK A01 T01930137  RH  073%=      5-min Rain = 0
KTIS 250000Z 12007KT 19/14 A2986 RMK A01 T01920139  RH  074%=      5-min Rain = 0
KTIS 250005Z 12007KT 20/14 A2986 RMK A01 T01950139  RH  073%=      5-min Rain = 0
KTIS 250010Z 12007KT 20/14 A2986 RMK A01 T01960141  RH  074%=      5-min Rain = 0
KTIS 250015Z 13007KT 20/15 A2986 RMK A01 T01980145  RH  074%=      5-min Rain = 0
KTIS 250020Z 13009KT 20/14 A2986 RMK A01 T01980143  RH  074%=      5-min Rain = 0
KTIS 250025Z 14010KT 20/14 A2986 RMK A01 T01950142  RH  074%=      5-min Rain = 0
KTIS 250030Z 13010KT 19/14 A2987 RMK A01 T01930143  RH  076%=      5-min Rain = 0
KTIS 250035Z 13011KT 19/14 A2988 RMK A01 T01900142  RH  077%=      5-min Rain = 0
KTIS 250040Z 15014KT 19/14 A2988 RMK A01 T01860141  RH  078%=      5-min Rain = 0
KTIS 250045Z 14014G20KT 18/14 A2988 RMK A01 T01840141  RH  080%=      5-min Rain = 0
KTIS 250050Z 15014G20KT 18/14 A2988 RMK A01 T01830142  RH  081%=      5-min Rain = 0
KTIS 250055Z 15015G21KT 18/14 A2989 RMK A01 T01820143  RH  082%=      5-min Rain = 0
KTIS 250100Z 15012KT 18/14 A299 RMK A01 T01810143  RH  082%=      5-min Rain = 0
KTIS 250105Z 15010KT 18/14 A299 RMK A01 T01820144  RH  082%=      5-min Rain = 0
KTIS 250110Z 15014G19KT 18/14 A299 RMK A01 T01820143  RH  081%=      5-min Rain = 0
KTIS 250115Z 16013G18KT 18/14 A299 RMK A01 T01820143  RH  082%=      5-min Rain = 0
KTIS 250120Z 15010KT 18/14 A299 RMK A01 T01820142  RH  081%=      5-min Rain = 0
KTIS 250125Z 16010KT 18/14 A299 RMK A01 T01830141  RH  080%=      5-min Rain = 0
KTIS 250130Z 16010KT 18/14 A2989 RMK A01 T01840140  RH  079%=      5-min Rain = 0
KTIS 250135Z 15009KT 19/14 A2989 RMK A01 T01850140  RH  079%=      5-min Rain = 0
KTIS 250140Z 15011KT 18/14 A299 RMK A01 T01840140  RH  078%=      5-min Rain = 0
KTIS 250145Z 16011G16KT 19/14 A299 RMK A01 T01850139  RH  078%=      5-min Rain = 0
KTIS 250150Z 17013G18KT 18/14 A2991 RMK A01 T01840138  RH  078%=      5-min Rain = 0
KTIS 250155Z 18012G17KT 18/14 A299 RMK A01 T01830139  RH  078%=      5-min Rain = 0
KTIS 250200Z 18012KT 18/14 A299 RMK A01 T01810138  RH  079%=      5-min Rain = 0
KTIS 250205Z 18012G17KT 18/14 A299 RMK A01 T01800136  RH  079%=      5-min Rain = 0
KTIS 250210Z 18012KT 18/14 A299 RMK A01 T01790136  RH  079%=      5-min Rain = 0
KTIS 250215Z 18012KT 18/14 A2991 RMK A01 T01780137  RH  080%=      5-min Rain = 0
KTIS 250220Z 18013KT 18/14 A2991 RMK A01 T01780136  RH  080%=      5-min Rain = 0
KTIS 250225Z 18013KT 18/14 A2991 RMK A01 T01780136  RH  079%=      5-min Rain = 0
KTIS 250230Z 19012KT 18/14 A2991 RMK A01 T01790135  RH  079%=      5-min Rain = 0
KTIS 250235Z 19011KT 18/14 A2991 RMK A01 T01790136  RH  079%=      5-min Rain = 0
KTIS 250240Z 20008KT 18/14 A299 RMK A01 T01780135  RH  079%=      5-min Rain = 0
KTIS 250245Z 20010KT 18/13 A299 RMK A01 T01780133  RH  078%=      5-min Rain = 0
KTIS 250250Z 19011KT 18/13 A299 RMK A01 T01800130  RH  076%=      5-min Rain = 0
KTIS 250255Z 19010KT 18/13 A299 RMK A01 T01810129  RH  074%=      5-min Rain = 0
KTIS 250300Z 20009KT 18/13 A299 RMK A01 T01810128  RH  074%=      5-min Rain = 0
KTIS 250305Z 20011KT 18/13 A2991 RMK A01 T01840129  RH  073%=      5-min Rain = 0
KTIS 250310Z 20011G17KT 19/13 A2991 RMK A01 T01870133  RH  074%=      5-min Rain = 0
KTIS 250315Z 20012G17KT 19/14 A2992 RMK A01 T01920138  RH  074%=      5-min Rain = 0
KTIS 250320Z 19015G20KT 20/15 A2992 RMK A01 T02010145  RH  073%=      5-min Rain = 0
KTIS 250325Z 19014KT 20/15 A2992 RMK A01 T02040148  RH  073%=      5-min Rain = 0
KTIS 250330Z 19013KT 20/15 A2992 RMK A01 T02030149  RH  074%=      5-min Rain = 0
KTIS 250335Z 19014KT 20/15 A2993 RMK A01 T02040147  RH  073%=      5-min Rain = 0
KTIS 250340Z 20011G17KT 20/14 A2993 RMK A01 T02030144  RH  072%=      5-min Rain = 0
KTIS 250345Z 21009KT 20/14 A2993 RMK A01 T02010139  RH  070%=      5-min Rain = 0
KTIS 250350Z 21009KT 20/13 A2993 RMK A01 T02000130  RH  067%=      5-min Rain = 0
KTIS 250355Z 19010G15KT 20/12 A2994 RMK A01 T01980123  RH  064%=      5-min Rain = 0
KTIS 250400Z 19013KT 20/10 A2994 RMK A01 T01990098  RH  054%=      5-min Rain = 0
KTIS 250405Z 20012KT 20/09 A2994 RMK A01 T01960087  RH  051%=      5-min Rain = 0
KTIS 250410Z 20010KT 19/09 A2994 RMK A01 T01940087  RH  051%=      5-min Rain = 0
KTIS 250415Z 21011G16KT 19/09 A2994 RMK A01 T01930090  RH  053%=      5-min Rain = 0
KTIS 250420Z 20014G19KT 19/10 A2994 RMK A01 T01920097  RH  056%=      5-min Rain = 0
KTIS 250425Z 19013G18KT 19/10 A2995 RMK A01 T01940104  RH  058%=      5-min Rain = 0
KTIS 250430Z 19012G17KT 19/11 A2995 RMK A01 T01920108  RH  060%=      5-min Rain = 0
KTIS 250435Z 18015G20KT 19/11 A2996 RMK A01 T01920108  RH  060%=      5-min Rain = 0
KTIS 250440Z 18016G21KT 19/11 A2996 RMK A01 T01920105  RH  059%=      5-min Rain = 0
KTIS 250445Z 18015G21KT 19/11 A2996 RMK A01 T01880106  RH  061%=      5-min Rain = 0
KTIS 250450Z 18017KT 19/11 A2996 RMK A01 T01870107  RH  062%=      5-min Rain = 0
KTIS 250455Z 18015KT 19/11 A2996 RMK A01 T01860107  RH  062%=      5-min Rain = 0

Page generated in 0.0111 seconds.